sensor_id;sensor_type;location;lat;lon;timestamp;pressure;altitude;pressure_sealevel;temperature;humidity
40794;BME280;26502;51.886;15.604;2022-11-20T00:04:54;100338.90;;;-1.97;72.65
40794;BME280;26502;51.886;15.604;2022-11-20T00:10:02;100329.33;;;-1.97;72.75
40794;BME280;26502;51.886;15.604;2022-11-20T00:15:11;100325.63;;;-1.99;72.58
40794;BME280;26502;51.886;15.604;2022-11-20T00:20:18;100330.53;;;-1.98;72.91
40794;BME280;26502;51.886;15.604;2022-11-20T00:25:25;100326.58;;;-1.93;72.82
40794;BME280;26502;51.886;15.604;2022-11-20T00:30:33;100321.89;;;-1.92;72.96
40794;BME280;26502;51.886;15.604;2022-11-20T00:35:40;100329.52;;;-1.94;72.92
40794;BME280;26502;51.886;15.604;2022-11-20T00:40:47;100331.48;;;-1.92;73.00
40794;BME280;26502;51.886;15.604;2022-11-20T00:46:04;100333.23;;;-1.91;72.99
40794;BME280;26502;51.886;15.604;2022-11-20T00:51:13;100337.02;;;-1.92;72.91
40794;BME280;26502;51.886;15.604;2022-11-20T00:56:21;100334.64;;;-1.89;73.00
40794;BME280;26502;51.886;15.604;2022-11-20T01:01:28;100337.41;;;-1.89;72.97
40794;BME280;26502;51.886;15.604;2022-11-20T01:06:37;100342.77;;;-1.93;73.19
40794;BME280;26502;51.886;15.604;2022-11-20T01:11:46;100346.27;;;-1.91;73.26
40794;BME280;26502;51.886;15.604;2022-11-20T01:16:54;100347.05;;;-1.84;73.21
40794;BME280;26502;51.886;15.604;2022-11-20T01:22:01;100351.64;;;-1.79;73.11
40794;BME280;26502;51.886;15.604;2022-11-20T01:27:08;100343.13;;;-1.79;73.07
40794;BME280;26502;51.886;15.604;2022-11-20T01:32:15;100340.36;;;-1.76;73.14
40794;BME280;26502;51.886;15.604;2022-11-20T01:37:23;100347.00;;;-1.75;73.11
40794;BME280;26502;51.886;15.604;2022-11-20T01:42:30;100344.42;;;-1.72;73.23
40794;BME280;26502;51.886;15.604;2022-11-20T01:47:55;100338.72;;;-1.68;72.94
40794;BME280;26502;51.886;15.604;2022-11-20T01:53:07;100342.73;;;-1.66;72.66
40794;BME280;26502;51.886;15.604;2022-11-20T01:58:17;100335.27;;;-1.66;72.52
40794;BME280;26502;51.886;15.604;2022-11-20T02:03:27;100340.17;;;-1.64;72.27
40794;BME280;26502;51.886;15.604;2022-11-20T02:08:35;100337.73;;;-1.63;72.19
40794;BME280;26502;51.886;15.604;2022-11-20T02:13:44;100331.80;;;-1.65;72.03
40794;BME280;26502;51.886;15.604;2022-11-20T02:18:55;100331.41;;;-1.67;71.98
40794;BME280;26502;51.886;15.604;2022-11-20T02:24:06;100331.59;;;-1.67;72.01
40794;BME280;26502;51.886;15.604;2022-11-20T02:29:17;100324.09;;;-1.68;71.82
40794;BME280;26502;51.886;15.604;2022-11-20T02:34:25;100319.70;;;-1.72;71.87
40794;BME280;26502;51.886;15.604;2022-11-20T02:39:32;100321.05;;;-1.76;71.72
40794;BME280;26502;51.886;15.604;2022-11-20T02:44:40;100322.58;;;-1.79;71.52
40794;BME280;26502;51.886;15.604;2022-11-20T02:49:47;100318.17;;;-1.84;71.62
40794;BME280;26502;51.886;15.604;2022-11-20T02:54:54;100312.21;;;-1.87;71.47
40794;BME280;26502;51.886;15.604;2022-11-20T03:00:02;100308.73;;;-1.87;71.54
40794;BME280;26502;51.886;15.604;2022-11-20T03:05:10;100306.08;;;-1.91;71.50
40794;BME280;26502;51.886;15.604;2022-11-20T03:10:17;100304.45;;;-1.95;71.37
40794;BME280;26502;51.886;15.604;2022-11-20T03:15:26;100303.73;;;-1.97;71.28
40794;BME280;26502;51.886;15.604;2022-11-20T03:20:33;100302.16;;;-1.97;71.52
40794;BME280;26502;51.886;15.604;2022-11-20T03:25:40;100294.34;;;-1.97;71.32
40794;BME280;26502;51.886;15.604;2022-11-20T03:30:50;100292.76;;;-1.98;71.23
40794;BME280;26502;51.886;15.604;2022-11-20T03:36:02;100286.44;;;-2.02;71.32
40794;BME280;26502;51.886;15.604;2022-11-20T03:41:11;100284.41;;;-1.98;71.34
40794;BME280;26502;51.886;15.604;2022-11-20T03:46:19;100281.51;;;-1.93;71.13
40794;BME280;26502;51.886;15.604;2022-11-20T03:51:27;100281.07;;;-2.01;70.98
40794;BME280;26502;51.886;15.604;2022-11-20T03:56:36;100280.23;;;-2.13;70.87
40794;BME280;26502;51.886;15.604;2022-11-20T04:01:43;100287.09;;;-2.20;71.14
40794;BME280;26502;51.886;15.604;2022-11-20T04:06:51;100282.14;;;-2.26;71.19
40794;BME280;26502;51.886;15.604;2022-11-20T04:11:58;100281.67;;;-2.21;71.41
40794;BME280;26502;51.886;15.604;2022-11-20T04:17:06;100286.86;;;-2.23;71.15
40794;BME280;26502;51.886;15.604;2022-11-20T04:22:13;100294.76;;;-2.32;71.10
40794;BME280;26502;51.886;15.604;2022-11-20T04:27:22;100295.87;;;-2.40;71.13
40794;BME280;26502;51.886;15.604;2022-11-20T04:32:29;100289.77;;;-2.41;71.00
40794;BME280;26502;51.886;15.604;2022-11-20T04:37:36;100287.83;;;-2.43;71.10
40794;BME280;26502;51.886;15.604;2022-11-20T04:42:44;100292.29;;;-2.47;71.19
40794;BME280;26502;51.886;15.604;2022-11-20T04:47:52;100294.55;;;-2.47;71.06
40794;BME280;26502;51.886;15.604;2022-11-20T04:52:59;100290.18;;;-2.48;70.98
40794;BME280;26502;51.886;15.604;2022-11-20T04:58:07;100290.93;;;-2.56;70.82
40794;BME280;26502;51.886;15.604;2022-11-20T05:03:17;100290.56;;;-2.69;71.08
40794;BME280;26502;51.886;15.604;2022-11-20T05:08:27;100293.13;;;-2.72;70.92
40794;BME280;26502;51.886;15.604;2022-11-20T05:13:34;100292.94;;;-2.73;70.97
40794;BME280;26502;51.886;15.604;2022-11-20T05:18:43;100295.23;;;-2.81;71.13
40794;BME280;26502;51.886;15.604;2022-11-20T05:23:50;100296.60;;;-2.84;70.96
40794;BME280;26502;51.886;15.604;2022-11-20T05:28:59;100297.67;;;-2.81;71.07
40794;BME280;26502;51.886;15.604;2022-11-20T05:34:08;100300.13;;;-2.81;71.04
40794;BME280;26502;51.886;15.604;2022-11-20T05:39:16;100290.78;;;-2.78;70.93
40794;BME280;26502;51.886;15.604;2022-11-20T05:44:23;100289.44;;;-2.75;71.04
40794;BME280;26502;51.886;15.604;2022-11-20T05:49:30;100284.91;;;-2.75;71.07
40794;BME280;26502;51.886;15.604;2022-11-20T05:54:37;100284.02;;;-2.77;70.98
40794;BME280;26502;51.886;15.604;2022-11-20T05:59:44;100283.20;;;-2.85;70.96
40794;BME280;26502;51.886;15.604;2022-11-20T06:04:52;100285.05;;;-2.89;71.14
40794;BME280;26502;51.886;15.604;2022-11-20T06:09:59;100289.30;;;-2.84;71.31
40794;BME280;26502;51.886;15.604;2022-11-20T06:15:09;100288.83;;;-2.81;71.07
40794;BME280;26502;51.886;15.604;2022-11-20T06:20:17;100290.58;;;-2.80;71.12
40794;BME280;26502;51.886;15.604;2022-11-20T06:25:24;100292.17;;;-2.78;71.37
40794;BME280;26502;51.886;15.604;2022-11-20T06:30:31;100293.27;;;-2.73;71.10
40794;BME280;26502;51.886;15.604;2022-11-20T06:35:38;100293.85;;;-2.71;71.04
40794;BME280;26502;51.886;15.604;2022-11-20T06:40:45;100286.83;;;-2.64;71.08
40794;BME280;26502;51.886;15.604;2022-11-20T06:45:56;100287.40;;;-2.60;71.12
40794;BME280;26502;51.886;15.604;2022-11-20T06:51:04;100284.52;;;-2.55;71.07
40794;BME280;26502;51.886;15.604;2022-11-20T06:56:12;100284.67;;;-2.55;70.96
40794;BME280;26502;51.886;15.604;2022-11-20T07:01:20;100284.06;;;-2.51;70.98
40794;BME280;26502;51.886;15.604;2022-11-20T07:06:27;100280.14;;;-2.45;71.19
40794;BME280;26502;51.886;15.604;2022-11-20T07:11:34;100275.32;;;-2.42;71.08
40794;BME280;26502;51.886;15.604;2022-11-20T07:16:42;100273.48;;;-2.36;71.00
40794;BME280;26502;51.886;15.604;2022-11-20T07:21:50;100266.57;;;-2.32;70.95
40794;BME280;26502;51.886;15.604;2022-11-20T07:26:58;100262.98;;;-2.27;70.96
40794;BME280;26502;51.886;15.604;2022-11-20T07:32:07;100258.16;;;-2.24;70.84
40794;BME280;26502;51.886;15.604;2022-11-20T07:37:14;100251.58;;;-2.21;70.75
40794;BME280;26502;51.886;15.604;2022-11-20T07:42:23;100248.30;;;-2.19;70.73
40794;BME280;26502;51.886;15.604;2022-11-20T07:47:36;100250.75;;;-2.17;70.45
40794;BME280;26502;51.886;15.604;2022-11-20T07:52:43;100255.16;;;-2.13;70.77
40794;BME280;26502;51.886;15.604;2022-11-20T07:57:57;100249.77;;;-2.12;70.22
40794;BME280;26502;51.886;15.604;2022-11-20T08:03:06;100250.51;;;-2.09;70.50
40794;BME280;26502;51.886;15.604;2022-11-20T08:08:15;100252.50;;;-2.03;70.45
40794;BME280;26502;51.886;15.604;2022-11-20T08:13:22;100248.92;;;-1.96;70.41
40794;BME280;26502;51.886;15.604;2022-11-20T08:18:47;100246.53;;;-1.93;70.53
40794;BME280;26502;51.886;15.604;2022-11-20T08:23:54;100245.37;;;-1.88;70.37
40794;BME280;26502;51.886;15.604;2022-11-20T08:29:01;100245.23;;;-1.84;70.40
40794;BME280;26502;51.886;15.604;2022-11-20T08:34:09;100236.94;;;-1.77;70.07
40794;BME280;26502;51.886;15.604;2022-11-20T08:39:17;100232.14;;;-1.71;70.02
40794;BME280;26502;51.886;15.604;2022-11-20T08:44:24;100237.03;;;-1.68;70.03
40794;BME280;26502;51.886;15.604;2022-11-20T08:49:31;100229.95;;;-1.63;69.96
40794;BME280;26502;51.886;15.604;2022-11-20T08:54:40;100224.21;;;-1.62;69.88
40794;BME280;26502;51.886;15.604;2022-11-20T08:59:48;100219.59;;;-1.55;69.86
40794;BME280;26502;51.886;15.604;2022-11-20T09:04:56;100215.99;;;-1.47;69.74
40794;BME280;26502;51.886;15.604;2022-11-20T09:10:05;100213.26;;;-1.42;69.69
40794;BME280;26502;51.886;15.604;2022-11-20T09:15:15;100212.41;;;-1.38;69.45
40794;BME280;26502;51.886;15.604;2022-11-20T09:20:22;100213.98;;;-1.39;69.34
40794;BME280;26502;51.886;15.604;2022-11-20T09:25:29;100211.92;;;-1.35;69.14
40794;BME280;26502;51.886;15.604;2022-11-20T09:30:37;100212.66;;;-1.30;69.16
40794;BME280;26502;51.886;15.604;2022-11-20T09:35:45;100201.60;;;-1.19;69.22
40794;BME280;26502;51.886;15.604;2022-11-20T09:40:57;100195.23;;;-1.11;69.14
40794;BME280;26502;51.886;15.604;2022-11-20T09:46:11;100186.89;;;-1.05;69.04
40794;BME280;26502;51.886;15.604;2022-11-20T09:51:31;100189.91;;;-0.96;68.87
40794;BME280;26502;51.886;15.604;2022-11-20T09:56:44;100184.39;;;-0.87;68.76
40794;BME280;26502;51.886;15.604;2022-11-20T10:01:50;100171.55;;;-0.77;68.60
40794;BME280;26502;51.886;15.604;2022-11-20T10:07:02;100163.26;;;-0.61;68.58
40794;BME280;26502;51.886;15.604;2022-11-20T10:12:18;100162.31;;;-0.37;68.47
40794;BME280;26502;51.886;15.604;2022-11-20T10:17:38;100160.77;;;-0.29;68.32
40794;BME280;26502;51.886;15.604;2022-11-20T10:23:11;100158.02;;;-0.13;67.85
40794;BME280;26502;51.886;15.604;2022-11-20T10:28:37;100154.21;;;-0.07;67.72
40794;BME280;26502;51.886;15.604;2022-11-20T10:33:49;100154.94;;;0.04;67.49
40794;BME280;26502;51.886;15.604;2022-11-20T10:39:01;100151.27;;;0.14;67.30
40794;BME280;26502;51.886;15.604;2022-11-20T10:44:15;100140.64;;;0.20;67.28
40794;BME280;26502;51.886;15.604;2022-11-20T10:49:45;100134.54;;;0.38;67.12
40794;BME280;26502;51.886;15.604;2022-11-20T10:54:58;100132.44;;;0.58;66.98
40794;BME280;26502;51.886;15.604;2022-11-20T11:00:09;100130.50;;;0.72;66.80
40794;BME280;26502;51.886;15.604;2022-11-20T11:05:27;100122.45;;;0.81;66.67
40794;BME280;26502;51.886;15.604;2022-11-20T11:10:44;100115.08;;;0.98;66.48
40794;BME280;26502;51.886;15.604;2022-11-20T11:15:55;100113.48;;;1.12;66.33
40794;BME280;26502;51.886;15.604;2022-11-20T11:21:04;100105.38;;;1.29;66.06
40794;BME280;26502;51.886;15.604;2022-11-20T11:26:22;100106.90;;;1.37;65.74
40794;BME280;26502;51.886;15.604;2022-11-20T11:31:31;100101.80;;;1.41;65.31
40794;BME280;26502;51.886;15.604;2022-11-20T11:36:39;100099.71;;;1.42;65.24
40794;BME280;26502;51.886;15.604;2022-11-20T11:41:47;100097.61;;;1.44;64.92
40794;BME280;26502;51.886;15.604;2022-11-20T11:46:57;100091.26;;;1.53;64.57
40794;BME280;26502;51.886;15.604;2022-11-20T11:52:12;100084.77;;;1.57;64.81
40794;BME280;26502;51.886;15.604;2022-11-20T11:57:26;100079.67;;;1.60;64.52
40794;BME280;26502;51.886;15.604;2022-11-20T12:02:39;100081.97;;;1.58;64.27
40794;BME280;26502;51.886;15.604;2022-11-20T12:07:55;100079.70;;;1.56;63.94
40794;BME280;26502;51.886;15.604;2022-11-20T12:13:11;100075.54;;;1.46;63.25
40794;BME280;26502;51.886;15.604;2022-11-20T12:18:24;100068.73;;;1.45;63.59
40794;BME280;26502;51.886;15.604;2022-11-20T12:23:38;100060.87;;;1.44;63.42
40794;BME280;26502;51.886;15.604;2022-11-20T12:28:59;100055.27;;;1.46;63.42
40794;BME280;26502;51.886;15.604;2022-11-20T12:34:28;100052.28;;;1.47;63.18
40794;BME280;26502;51.886;15.604;2022-11-20T12:39:45;100053.16;;;1.46;63.23
40794;BME280;26502;51.886;15.604;2022-11-20T12:45:13;100045.29;;;1.46;62.90
40794;BME280;26502;51.886;15.604;2022-11-20T12:50:30;100040.59;;;1.42;62.69
40794;BME280;26502;51.886;15.604;2022-11-20T12:55:49;100035.67;;;1.42;62.92
40794;BME280;26502;51.886;15.604;2022-11-20T13:01:06;100028.67;;;1.44;62.88
40794;BME280;26502;51.886;15.604;2022-11-20T13:06:40;100025.00;;;1.41;62.65
40794;BME280;26502;51.886;15.604;2022-11-20T13:11:54;100025.86;;;1.45;62.44
40794;BME280;26502;51.886;15.604;2022-11-20T13:17:12;100024.27;;;1.48;62.26
40794;BME280;26502;51.886;15.604;2022-11-20T13:22:28;100013.06;;;1.49;62.27
40794;BME280;26502;51.886;15.604;2022-11-20T13:27:35;100008.15;;;1.51;62.70
40794;BME280;26502;51.886;15.604;2022-11-20T13:32:54;100004.66;;;1.49;62.20
40794;BME280;26502;51.886;15.604;2022-11-20T13:38:07;100004.69;;;1.44;61.81
40794;BME280;26502;51.886;15.604;2022-11-20T13:43:23;100012.77;;;1.41;61.58
40794;BME280;26502;51.886;15.604;2022-11-20T13:48:39;100004.05;;;1.63;61.63
40794;BME280;26502;51.886;15.604;2022-11-20T13:54:03;99999.71;;;1.82;61.06
40794;BME280;26502;51.886;15.604;2022-11-20T13:59:31;99998.27;;;1.88;60.30
40794;BME280;26502;51.886;15.604;2022-11-20T14:04:47;99988.54;;;1.78;60.16
40794;BME280;26502;51.886;15.604;2022-11-20T14:09:57;99980.52;;;1.72;60.54
40794;BME280;26502;51.886;15.604;2022-11-20T14:15:22;99974.40;;;1.72;60.48
40794;BME280;26502;51.886;15.604;2022-11-20T14:20:31;99973.41;;;1.65;60.72
40794;BME280;26502;51.886;15.604;2022-11-20T14:25:43;99971.70;;;1.60;60.67
40794;BME280;26502;51.886;15.604;2022-11-20T14:30:53;99967.70;;;1.55;60.70
40794;BME280;26502;51.886;15.604;2022-11-20T14:36:02;99964.27;;;1.45;60.39
40794;BME280;26502;51.886;15.604;2022-11-20T14:41:16;99969.75;;;1.35;60.96
40794;BME280;26502;51.886;15.604;2022-11-20T14:46:25;99973.77;;;1.35;60.99
40794;BME280;26502;51.886;15.604;2022-11-20T14:51:35;99973.98;;;1.28;60.94
40794;BME280;26502;51.886;15.604;2022-11-20T14:56:57;99980.48;;;1.25;61.17
40794;BME280;26502;51.886;15.604;2022-11-20T15:02:08;99978.11;;;1.12;61.13
40794;BME280;26502;51.886;15.604;2022-11-20T15:07:27;99984.64;;;0.99;61.52
40794;BME280;26502;51.886;15.604;2022-11-20T15:12:37;99988.38;;;0.82;61.57
40794;BME280;26502;51.886;15.604;2022-11-20T15:17:49;99992.96;;;0.67;61.42
40794;BME280;26502;51.886;15.604;2022-11-20T15:22:56;99992.14;;;0.50;61.72
40794;BME280;26502;51.886;15.604;2022-11-20T15:28:07;99992.70;;;0.34;61.89
40794;BME280;26502;51.886;15.604;2022-11-20T15:33:20;99989.58;;;0.23;61.69
40794;BME280;26502;51.886;15.604;2022-11-20T15:38:28;99989.59;;;0.15;61.96
40794;BME280;26502;51.886;15.604;2022-11-20T15:43:36;99991.67;;;0.11;62.40
40794;BME280;26502;51.886;15.604;2022-11-20T15:48:53;99983.14;;;0.02;62.18
40794;BME280;26502;51.886;15.604;2022-11-20T15:54:03;99985.77;;;-0.09;62.56
40794;BME280;26502;51.886;15.604;2022-11-20T15:59:16;99979.30;;;-0.06;62.73
40794;BME280;26502;51.886;15.604;2022-11-20T16:04:24;99975.11;;;-0.06;62.69
40794;BME280;26502;51.886;15.604;2022-11-20T16:09:33;99969.19;;;-0.12;62.69
40794;BME280;26502;51.886;15.604;2022-11-20T16:14:43;99967.27;;;-0.15;62.81
40794;BME280;26502;51.886;15.604;2022-11-20T16:20:12;99960.27;;;-0.22;63.00
40794;BME280;26502;51.886;15.604;2022-11-20T16:25:20;99966.56;;;-0.34;62.80
40794;BME280;26502;51.886;15.604;2022-11-20T16:30:28;99967.77;;;-0.45;63.11
40794;BME280;26502;51.886;15.604;2022-11-20T16:35:35;99968.80;;;-0.56;63.17
40794;BME280;26502;51.886;15.604;2022-11-20T16:40:43;99964.44;;;-0.66;63.22
40794;BME280;26502;51.886;15.604;2022-11-20T16:45:51;99963.36;;;-0.80;63.33
40794;BME280;26502;51.886;15.604;2022-11-20T16:50:59;99961.77;;;-0.93;63.67
40794;BME280;26502;51.886;15.604;2022-11-20T16:56:14;99967.66;;;-0.98;63.76
40794;BME280;26502;51.886;15.604;2022-11-20T17:01:24;99964.17;;;-0.98;63.84
40794;BME280;26502;51.886;15.604;2022-11-20T17:06:36;99965.38;;;-1.06;63.98
40794;BME280;26502;51.886;15.604;2022-11-20T17:11:46;99960.31;;;-1.08;64.20
40794;BME280;26502;51.886;15.604;2022-11-20T17:16:55;99960.83;;;-1.12;64.24
40794;BME280;26502;51.886;15.604;2022-11-20T17:22:05;99960.81;;;-1.12;64.38
40794;BME280;26502;51.886;15.604;2022-11-20T17:27:13;99963.59;;;-1.19;64.53
40794;BME280;26502;51.886;15.604;2022-11-20T17:32:21;99959.21;;;-1.22;64.62
40794;BME280;26502;51.886;15.604;2022-11-20T17:37:31;99959.89;;;-1.29;64.66
40794;BME280;26502;51.886;15.604;2022-11-20T17:42:39;99959.88;;;-1.32;65.05
40794;BME280;26502;51.886;15.604;2022-11-20T17:47:47;99953.63;;;-1.28;64.93
40794;BME280;26502;51.886;15.604;2022-11-20T17:52:57;99955.88;;;-1.32;65.13
40794;BME280;26502;51.886;15.604;2022-11-20T17:58:06;99961.61;;;-1.36;65.23
40794;BME280;26502;51.886;15.604;2022-11-20T18:03:14;99964.37;;;-1.36;65.40
40794;BME280;26502;51.886;15.604;2022-11-20T18:08:21;99969.80;;;-1.35;65.47
40794;BME280;26502;51.886;15.604;2022-11-20T18:13:32;99967.36;;;-1.35;65.71
40794;BME280;26502;51.886;15.604;2022-11-20T18:18:59;99963.69;;;-1.38;65.81
40794;BME280;26502;51.886;15.604;2022-11-20T18:24:09;99960.72;;;-1.40;66.05
40794;BME280;26502;51.886;15.604;2022-11-20T18:29:16;99956.55;;;-1.38;66.03
40794;BME280;26502;51.886;15.604;2022-11-20T18:34:25;99957.41;;;-1.36;66.03
40794;BME280;26502;51.886;15.604;2022-11-20T18:39:36;99956.88;;;-1.39;66.18
40794;BME280;26502;51.886;15.604;2022-11-20T18:44:44;99952.89;;;-1.38;66.41
40794;BME280;26502;51.886;15.604;2022-11-20T18:50:00;99950.11;;;-1.32;66.78
40794;BME280;26502;51.886;15.604;2022-11-20T18:55:09;99946.30;;;-1.28;66.98
40794;BME280;26502;51.886;15.604;2022-11-20T19:00:18;99941.59;;;-1.31;67.07
40794;BME280;26502;51.886;15.604;2022-11-20T19:05:27;99949.05;;;-1.36;67.59
40794;BME280;26502;51.886;15.604;2022-11-20T19:10:37;99949.39;;;-1.41;67.99
40794;BME280;26502;51.886;15.604;2022-11-20T19:15:45;99949.56;;;-1.42;68.19
40794;BME280;26502;51.886;15.604;2022-11-20T19:20:53;99949.72;;;-1.43;68.36
40794;BME280;26502;51.886;15.604;2022-11-20T19:26:02;99947.63;;;-1.44;68.54
40794;BME280;26502;51.886;15.604;2022-11-20T19:31:12;99950.42;;;-1.45;68.76
40794;BME280;26502;51.886;15.604;2022-11-20T19:36:25;99951.63;;;-1.46;68.99
40794;BME280;26502;51.886;15.604;2022-11-20T19:41:35;99953.73;;;-1.42;68.91
40794;BME280;26502;51.886;15.604;2022-11-20T19:46:44;99952.85;;;-1.44;68.97
40794;BME280;26502;51.886;15.604;2022-11-20T19:51:52;99955.45;;;-1.47;69.01
40794;BME280;26502;51.886;15.604;2022-11-20T19:57:02;99958.62;;;-1.42;69.30
40794;BME280;26502;51.886;15.604;2022-11-20T20:02:12;99960.03;;;-1.40;69.28
40794;BME280;26502;51.886;15.604;2022-11-20T20:07:22;99957.73;;;-1.43;69.21
40794;BME280;26502;51.886;15.604;2022-11-20T20:12:30;99956.52;;;-1.45;69.16
40794;BME280;26502;51.886;15.604;2022-11-20T20:17:39;99956.48;;;-1.52;69.25
40794;BME280;26502;51.886;15.604;2022-11-20T20:22:50;99953.13;;;-1.59;69.36
40794;BME280;26502;51.886;15.604;2022-11-20T20:27:57;99955.88;;;-1.67;69.33
40794;BME280;26502;51.886;15.604;2022-11-20T20:33:05;99959.17;;;-1.67;69.31
40794;BME280;26502;51.886;15.604;2022-11-20T20:38:14;99964.95;;;-1.62;69.44
40794;BME280;26502;51.886;15.604;2022-11-20T20:43:23;99965.11;;;-1.66;69.26
40794;BME280;26502;51.886;15.604;2022-11-20T20:48:31;99959.27;;;-1.79;69.19
40794;BME280;26502;51.886;15.604;2022-11-20T20:53:41;99958.92;;;-1.80;69.21
40794;BME280;26502;51.886;15.604;2022-11-20T20:58:50;99958.39;;;-1.82;69.12
40794;BME280;26502;51.886;15.604;2022-11-20T21:03:59;99954.60;;;-1.75;69.39
40794;BME280;26502;51.886;15.604;2022-11-20T21:09:07;99955.13;;;-1.76;68.94
40794;BME280;26502;51.886;15.604;2022-11-20T21:14:15;99953.92;;;-1.98;69.03
40794;BME280;26502;51.886;15.604;2022-11-20T21:19:23;99951.69;;;-1.97;69.10
40794;BME280;26502;51.886;15.604;2022-11-20T21:24:33;99954.02;;;-2.13;68.98
40794;BME280;26502;51.886;15.604;2022-11-20T21:29:39;99952.45;;;-2.33;69.10
40794;BME280;26502;51.886;15.604;2022-11-20T21:34:46;99943.59;;;-2.34;69.26
40794;BME280;26502;51.886;15.604;2022-11-20T21:39:54;99932.27;;;-2.34;69.31
40794;BME280;26502;51.886;15.604;2022-11-20T21:45:03;99930.02;;;-2.53;68.91
40794;BME280;26502;51.886;15.604;2022-11-20T21:50:12;99924.15;;;-2.70;69.21
40794;BME280;26502;51.886;15.604;2022-11-20T21:55:21;99916.64;;;-2.73;69.31
40794;BME280;26502;51.886;15.604;2022-11-20T22:00:29;99916.71;;;-2.65;69.31
40794;BME280;26502;51.886;15.604;2022-11-20T22:05:37;99910.69;;;-2.57;69.35
40794;BME280;26502;51.886;15.604;2022-11-20T22:10:45;99909.14;;;-2.57;69.06
40794;BME280;26502;51.886;15.604;2022-11-20T22:16:03;99909.16;;;-2.52;69.42
40794;BME280;26502;51.886;15.604;2022-11-20T22:21:11;99903.94;;;-2.53;69.41
40794;BME280;26502;51.886;15.604;2022-11-20T22:26:20;99899.58;;;-2.58;69.31
40794;BME280;26502;51.886;15.604;2022-11-20T22:31:29;99898.25;;;-2.88;68.88
40794;BME280;26502;51.886;15.604;2022-11-20T22:36:37;99895.45;;;-3.10;69.01
40794;BME280;26502;51.886;15.604;2022-11-20T22:41:45;99887.80;;;-3.09;69.31
40794;BME280;26502;51.886;15.604;2022-11-20T22:46:52;99878.52;;;-3.17;69.32
40794;BME280;26502;51.886;15.604;2022-11-20T22:51:59;99866.11;;;-3.07;69.44
40794;BME280;26502;51.886;15.604;2022-11-20T22:57:06;99866.34;;;-3.01;69.39
40794;BME280;26502;51.886;15.604;2022-11-20T23:02:13;99865.41;;;-3.07;69.30
40794;BME280;26502;51.886;15.604;2022-11-20T23:07:21;99856.04;;;-3.07;69.37
40794;BME280;26502;51.886;15.604;2022-11-20T23:12:28;99856.91;;;-3.07;68.97
40794;BME280;26502;51.886;15.604;2022-11-20T23:17:37;99855.83;;;-3.11;68.92
40794;BME280;26502;51.886;15.604;2022-11-20T23:22:44;99844.17;;;-3.14;69.38
40794;BME280;26502;51.886;15.604;2022-11-20T23:27:53;99846.00;;;-3.21;69.45
40794;BME280;26502;51.886;15.604;2022-11-20T23:33:00;99841.60;;;-3.26;69.61
40794;BME280;26502;51.886;15.604;2022-11-20T23:38:07;99829.38;;;-3.34;69.22
40794;BME280;26502;51.886;15.604;2022-11-20T23:43:16;99832.84;;;-3.51;69.36
40794;BME280;26502;51.886;15.604;2022-11-20T23:48:24;99830.77;;;-3.66;68.71
40794;BME280;26502;51.886;15.604;2022-11-20T23:53:34;99822.93;;;-3.68;69.43
40794;BME280;26502;51.886;15.604;2022-11-20T23:58:44;99812.17;;;-3.53;69.68
